createdAt,value
2023-05-01T00:00:05.500Z,46.97
2023-05-01T00:02:34.263Z,47.68
2023-05-01T00:05:02.280Z,47.59
2023-05-01T00:07:31.041Z,47.35
2023-05-01T00:10:00.200Z,46.67
2023-05-01T00:12:28.050Z,47.12
2023-05-01T00:14:55.762Z,47.53
2023-05-01T00:17:23.944Z,47.58
2023-05-01T00:19:53.393Z,47.37
2023-05-01T00:22:21.298Z,47.30
2023-05-01T00:24:50.119Z,48.02
2023-05-01T00:27:19.349Z,48.09
2023-05-01T00:29:47.179Z,47.85
2023-05-01T00:32:15.426Z,48.33
2023-05-01T00:34:49.725Z,48.00
2023-05-01T00:37:17.755Z,47.94
2023-05-01T00:39:45.802Z,48.12
2023-05-01T00:42:14.207Z,47.90
2023-05-01T00:44:43.550Z,48.09
2023-05-01T00:47:11.879Z,47.87
2023-05-01T00:49:39.818Z,47.91
2023-05-01T00:52:09.890Z,48.06
2023-05-01T00:54:38.072Z,48.15
2023-05-01T00:57:06.131Z,48.67
2023-05-01T00:59:34.294Z,48.21
2023-05-01T01:02:03.691Z,48.16
2023-05-01T01:04:33.662Z,48.13
2023-05-01T01:07:05.528Z,48.03
2023-05-01T01:09:36.964Z,48.16
2023-05-01T01:12:10.686Z,48.23
2023-05-01T01:14:41.728Z,48.64
2023-05-01T01:17:13.377Z,48.25
2023-05-01T01:20:15.010Z,48.46
2023-05-01T01:22:44.855Z,48.11
2023-05-01T01:25:36.505Z,48.33
2023-05-01T01:28:18.940Z,48.49
2023-05-01T01:31:12.039Z,48.10
2023-05-01T01:34:01.605Z,48.35
2023-05-01T01:36:36.317Z,48.50
2023-05-01T01:39:10.412Z,48.55
2023-05-01T01:41:38.320Z,48.47
2023-05-01T01:44:09.036Z,48.57
2023-05-01T01:46:38.937Z,48.70
2023-05-01T01:49:10.825Z,48.68
2023-05-01T01:51:39.092Z,48.53
2023-05-01T01:54:07.060Z,48.67
2023-05-01T01:56:34.853Z,48.97
2023-05-01T01:59:02.642Z,49.22
2023-05-01T02:01:30.397Z,48.58
2023-05-01T02:03:58.293Z,48.80
2023-05-01T02:06:27.810Z,49.04
2023-05-01T02:08:55.578Z,48.76
2023-05-01T02:11:23.504Z,48.81
2023-05-01T02:13:51.833Z,49.20
2023-05-01T02:16:19.723Z,48.90
2023-05-01T02:18:47.627Z,49.06
2023-05-01T02:21:16.063Z,48.88
2023-05-01T02:23:45.247Z,48.49
2023-05-01T02:26:14.588Z,48.82
2023-05-01T02:28:42.436Z,48.93
2023-05-01T02:31:10.361Z,49.01
2023-05-01T02:33:38.269Z,49.08
2023-05-01T02:36:07.105Z,48.92
2023-05-01T02:38:35.426Z,49.20
2023-05-01T02:41:04.710Z,49.24
2023-05-01T02:43:33.502Z,48.54
2023-05-01T02:46:01.784Z,49.13
2023-05-01T02:48:29.752Z,48.38
2023-05-01T02:50:57.741Z,48.92
2023-05-01T02:53:25.646Z,48.56
2023-05-01T02:55:53.633Z,49.06
2023-05-01T02:58:23.581Z,48.73
2023-05-01T03:00:51.643Z,49.02
2023-05-01T03:03:19.754Z,48.51
2023-05-01T03:05:47.752Z,48.87
2023-05-01T03:08:15.776Z,48.90
2023-05-01T03:10:43.658Z,48.96
2023-05-01T03:13:11.689Z,49.16
2023-05-01T03:15:41.390Z,49.02
2023-05-01T03:18:09.675Z,49.29
2023-05-01T03:20:37.789Z,48.95
2023-05-01T03:23:05.667Z,49.09
2023-05-01T03:25:33.562Z,49.04
2023-05-01T03:28:01.400Z,49.14
2023-05-01T03:30:29.219Z,49.23
2023-05-01T03:32:58.376Z,49.33
2023-05-01T03:35:26.345Z,49.84
2023-05-01T03:37:54.228Z,49.73
2023-05-01T03:40:22.107Z,49.62
2023-05-01T03:42:50.006Z,49.85
2023-05-01T03:45:17.906Z,49.46
2023-05-01T03:47:45.805Z,49.57
2023-05-01T03:50:15.032Z,49.78
2023-05-01T03:52:43.026Z,50.26
2023-05-01T03:55:11.138Z,49.91
2023-05-01T03:57:39.003Z,49.51
2023-05-01T04:00:07.880Z,49.62
2023-05-01T04:02:36.107Z,49.68
2023-05-01T04:05:04.617Z,49.63
2023-05-01T04:07:33.754Z,49.73
2023-05-01T04:10:01.503Z,49.95
2023-05-01T04:12:29.687Z,49.67
2023-05-01T04:14:57.653Z,49.84
2023-05-01T04:17:25.463Z,50.08
2023-05-01T04:19:54.946Z,50.09
2023-05-01T04:22:23.257Z,49.97
2023-05-01T04:24:52.919Z,50.21
2023-05-01T04:27:20.816Z,50.16
2023-05-01T04:29:48.832Z,50.20
2023-05-01T04:32:17.294Z,50.00
2023-05-01T04:34:45.385Z,49.97
2023-05-01T04:37:14.460Z,50.27
2023-05-01T04:39:42.264Z,50.01
2023-05-01T04:42:11.599Z,49.98
2023-05-01T04:44:39.498Z,50.42
2023-05-01T04:47:07.551Z,50.61
2023-05-01T04:49:35.522Z,50.39
2023-05-01T04:52:03.324Z,50.07
2023-05-01T04:54:31.209Z,50.09
2023-05-01T04:56:58.954Z,50.22
2023-05-01T04:59:28.648Z,50.37
2023-05-01T05:24:36.765Z,49.70
2023-05-01T08:03:18.541Z,33.48
2023-05-01T08:06:34.414Z,32.35
2023-05-01T08:10:00.810Z,32.01
2023-05-01T08:19:01.043Z,30.80
2023-05-01T08:21:29.882Z,30.21
2023-05-01T08:23:57.617Z,29.55
2023-05-01T08:26:42.706Z,28.79
2023-05-01T08:29:11.185Z,27.33
2023-05-01T08:31:39.440Z,26.85
2023-05-01T08:34:08.533Z,26.22
2023-05-01T08:36:36.565Z,25.91
2023-05-01T08:39:05.200Z,24.95
2023-05-01T08:41:33.080Z,24.80
2023-05-01T08:44:03.875Z,24.01
2023-05-01T08:46:38.378Z,23.63
2023-05-01T08:49:08.808Z,23.35
2023-05-01T08:51:38.323Z,22.39
2023-05-01T08:54:06.596Z,21.63
2023-05-01T08:56:34.392Z,21.55
2023-05-01T08:59:04.108Z,21.97
2023-05-01T09:01:32.632Z,21.51
2023-05-01T09:04:00.572Z,22.12
2023-05-01T09:06:29.611Z,22.34
2023-05-01T09:08:58.943Z,22.23
2023-05-01T09:11:27.881Z,21.84
2023-05-01T09:13:55.626Z,22.07
2023-05-01T09:16:26.574Z,21.99
2023-05-01T09:18:54.273Z,22.44
2023-05-01T09:21:22.445Z,22.31
2023-05-01T09:23:51.703Z,22.01
2023-05-01T09:26:21.993Z,22.12
2023-05-01T09:28:51.701Z,21.97
2023-05-01T09:31:23.573Z,22.25
2023-05-01T09:33:57.864Z,21.90
2023-05-01T09:36:26.044Z,21.97
2023-05-01T09:38:53.791Z,22.50
2023-05-01T09:41:23.270Z,21.87
2023-05-01T09:43:52.382Z,22.64
2023-05-01T09:46:20.572Z,22.14
2023-05-01T09:48:58.692Z,22.18
2023-05-01T09:51:28.065Z,22.05
2023-05-01T09:53:57.480Z,22.25
2023-05-01T10:27:37.050Z,14.13
2023-05-01T10:59:33.252Z,12.47
2023-05-01T11:03:06.512Z,11.37
2023-05-01T11:19:44.928Z,13.55
2023-05-01T11:27:07.214Z,13.42
2023-05-01T11:38:28.856Z,15.28
2023-05-01T11:44:37.504Z,15.38
2023-05-01T11:48:07.022Z,16.40
2023-05-01T11:51:26.392Z,16.36
2023-05-01T12:12:41.912Z,18.89
2023-05-01T12:24:23.460Z,19.28
2023-05-01T12:45:05.325Z,20.91
2023-05-01T13:19:36.910Z,22.62
2023-05-01T13:31:15.478Z,23.19
2023-05-01T13:33:44.431Z,23.10
2023-05-01T13:36:24.509Z,23.22
2023-05-01T13:38:56.595Z,23.50
2023-05-01T13:41:26.500Z,23.65
2023-05-01T13:43:58.708Z,23.35
2023-05-01T14:25:38.969Z,23.63
2023-05-01T14:29:38.248Z,23.96
2023-05-01T15:46:08.431Z,30.28
2023-05-01T16:31:56.553Z,32.64
2023-05-01T16:51:26.375Z,33.06
2023-05-01T16:53:54.322Z,33.19
2023-05-01T16:56:26.675Z,33.43
2023-05-01T16:59:40.741Z,33.32
2023-05-01T17:07:27.660Z,33.23
2023-05-01T17:16:33.382Z,33.44
2023-05-01T17:19:16.876Z,33.84
2023-05-01T17:21:45.027Z,33.99
2023-05-01T17:24:14.265Z,34.11
2023-05-01T17:26:42.373Z,33.98
2023-05-01T17:29:10.357Z,34.22
2023-05-01T17:31:38.531Z,34.13
2023-05-01T17:34:06.419Z,33.96
2023-05-01T17:36:37.419Z,34.18
2023-05-01T17:39:05.404Z,34.25
2023-05-01T17:41:34.506Z,34.32
2023-05-01T17:44:02.313Z,34.23
2023-05-01T17:46:31.495Z,34.49
2023-05-01T17:49:16.656Z,34.50
2023-05-01T17:51:45.170Z,34.95
2023-05-01T17:54:17.462Z,35.03
2023-05-01T17:56:46.602Z,34.98
2023-05-01T17:59:14.331Z,35.02
2023-05-01T18:01:59.300Z,35.22
2023-05-01T18:04:28.915Z,35.36
2023-05-01T18:07:00.410Z,35.48
2023-05-01T18:09:50.680Z,35.58
2023-05-01T18:12:22.940Z,35.86
2023-05-01T18:14:52.071Z,35.91
2023-05-01T18:17:20.709Z,35.81
2023-05-01T18:20:36.052Z,36.08
2023-05-01T18:25:56.329Z,36.52
2023-05-01T18:28:30.117Z,36.71
2023-05-01T18:31:00.784Z,36.93
2023-05-01T18:33:31.116Z,37.02
2023-05-01T18:36:00.004Z,36.80
2023-05-01T18:38:45.333Z,36.78
2023-05-01T18:41:13.536Z,36.87
2023-05-01T18:43:43.009Z,36.97
2023-05-01T18:46:11.278Z,37.21
2023-05-01T18:48:40.378Z,37.25
2023-05-01T18:51:21.321Z,37.77
2023-05-01T18:53:49.364Z,37.94
2023-05-01T18:56:17.818Z,38.27
2023-05-01T18:58:53.419Z,38.40
2023-05-01T19:01:38.332Z,38.67
2023-05-01T19:04:11.358Z,38.92
2023-05-01T19:06:41.105Z,39.38
2023-05-01T19:09:14.518Z,39.42
2023-05-01T19:11:42.822Z,39.60
2023-05-01T19:14:38.254Z,39.70
2023-05-01T19:17:06.606Z,40.38
2023-05-01T19:19:34.635Z,40.54
2023-05-01T19:22:02.839Z,40.79
2023-05-01T19:24:37.188Z,41.01
2023-05-01T19:27:30.116Z,40.96
2023-05-01T19:30:01.085Z,41.22
2023-05-01T19:32:30.991Z,41.73
2023-05-01T19:34:59.241Z,41.48
2023-05-01T19:37:27.972Z,42.03
2023-05-01T19:39:56.233Z,42.37
2023-05-01T19:42:24.467Z,42.35
2023-05-01T19:44:53.567Z,42.48
2023-05-01T19:47:23.324Z,42.81
2023-05-01T19:49:57.144Z,43.20
2023-05-01T19:52:25.277Z,43.00
2023-05-01T19:54:53.336Z,43.39
2023-05-01T19:57:24.067Z,43.31
2023-05-01T19:59:54.517Z,43.68
2023-05-01T20:02:24.199Z,43.96
2023-05-01T20:04:54.536Z,43.77
2023-05-01T20:07:24.527Z,43.82
2023-05-01T20:09:57.452Z,44.17
2023-05-01T20:12:26.815Z,44.00
2023-05-01T20:14:54.907Z,44.13
2023-05-01T20:17:26.553Z,44.32
2023-05-01T20:19:54.438Z,44.47
2023-05-01T20:22:22.545Z,44.74
2023-05-01T20:24:50.790Z,44.79
2023-05-01T20:27:37.521Z,44.68
2023-05-01T20:30:06.996Z,44.80
2023-05-01T20:32:42.770Z,45.29
2023-05-01T20:35:17.172Z,45.24
2023-05-01T20:37:45.187Z,45.65
2023-05-01T20:40:14.953Z,45.60
2023-05-01T20:42:43.205Z,45.82
2023-05-01T20:45:11.757Z,46.14
2023-05-01T20:47:41.260Z,46.12
2023-05-01T20:50:10.060Z,46.42
2023-05-01T20:52:38.223Z,46.33
2023-05-01T20:55:07.322Z,46.52
2023-05-01T20:57:36.864Z,46.86
2023-05-01T21:00:05.790Z,46.79
2023-05-01T21:02:33.914Z,47.01
2023-05-01T21:05:03.988Z,47.05
2023-05-01T21:07:32.103Z,47.16
2023-05-01T21:10:01.367Z,47.37
2023-05-01T21:12:30.032Z,47.43
2023-05-01T21:14:58.529Z,47.52
2023-05-01T21:17:26.872Z,48.02
2023-05-01T21:19:54.717Z,47.85
2023-05-01T21:22:28.830Z,48.00
2023-05-01T21:24:57.544Z,47.87
2023-05-01T21:27:26.057Z,48.73
2023-05-01T21:29:58.042Z,48.46
2023-05-01T21:32:27.789Z,48.65
2023-05-01T21:34:56.091Z,48.79
2023-05-01T21:37:25.389Z,48.86
2023-05-01T21:39:53.314Z,48.84
2023-05-01T21:42:21.173Z,48.86
2023-05-01T21:44:49.343Z,48.91
2023-05-01T21:47:17.332Z,49.49
2023-05-01T21:49:45.112Z,49.41
2023-05-01T21:52:14.746Z,49.62
2023-05-01T21:54:43.762Z,50.13
2023-05-01T21:57:11.710Z,50.04
2023-05-01T21:59:39.753Z,50.10
2023-05-01T22:02:08.948Z,50.05
2023-05-01T22:04:37.137Z,50.51
2023-05-01T22:07:05.058Z,50.69
2023-05-01T22:09:32.760Z,50.50
2023-05-01T22:12:01.895Z,50.86
2023-05-01T22:14:40.195Z,50.71
2023-05-01T22:17:14.708Z,50.67
2023-05-01T22:19:42.530Z,50.78
2023-05-01T22:22:10.324Z,50.82
2023-05-01T22:24:37.980Z,51.17
2023-05-01T22:27:07.186Z,51.10
2023-05-01T22:29:34.925Z,51.42
2023-05-01T22:32:02.795Z,51.41
2023-05-01T22:34:30.456Z,51.94
2023-05-01T22:36:58.544Z,51.66
2023-05-01T22:39:26.562Z,52.03
2023-05-01T22:41:58.131Z,52.06
2023-05-01T22:44:27.635Z,51.87
2023-05-01T22:46:55.325Z,52.05
2023-05-01T22:49:23.338Z,52.36
2023-05-01T22:51:50.996Z,52.27
2023-05-01T22:54:19.200Z,52.16
2023-05-01T22:56:47.060Z,52.45
2023-05-01T22:59:14.868Z,52.60
2023-05-01T23:01:46.433Z,52.29
2023-05-01T23:04:14.638Z,52.50
2023-05-01T23:06:44.668Z,52.68
2023-05-01T23:09:12.766Z,52.69
2023-05-01T23:11:41.583Z,52.74
2023-05-01T23:14:09.503Z,52.98
2023-05-01T23:16:41.408Z,53.07
2023-05-01T23:19:20.097Z,53.28
2023-05-01T23:21:48.010Z,53.20
2023-05-01T23:24:17.651Z,53.44
2023-05-01T23:26:45.777Z,52.91
2023-05-01T23:29:13.891Z,52.95
2023-05-01T23:31:45.670Z,53.17
2023-05-01T23:34:17.896Z,53.18
2023-05-01T23:36:46.362Z,53.17
2023-05-01T23:39:14.239Z,53.14
2023-05-01T23:41:42.258Z,53.26
2023-05-01T23:44:10.200Z,52.53
2023-05-01T23:46:38.370Z,53.03
2023-05-01T23:49:06.509Z,52.75
2023-05-01T23:51:35.908Z,53.01
2023-05-01T23:54:04.298Z,52.88
2023-05-01T23:56:32.564Z,52.88
2023-05-01T23:59:03.694Z,52.71
